createdAt,value
2019-03-27T00:00:34.107Z,6.81
2019-03-27T00:01:34.081Z,6.87
2019-03-27T00:02:34.073Z,6.87
2019-03-27T00:03:34.063Z,6.85
2019-03-27T00:04:34.101Z,6.82
2019-03-27T00:05:34.038Z,6.81
2019-03-27T00:06:34.077Z,6.82
2019-03-27T00:07:34.028Z,6.79
2019-03-27T00:08:34.026Z,6.79
2019-03-27T00:09:34.019Z,6.89
2019-03-27T00:10:34.019Z,6.89
2019-03-27T00:11:34.097Z,6.89
2019-03-27T00:12:33.963Z,6.81
2019-03-27T00:13:34.017Z,6.87
2019-03-27T00:14:33.963Z,6.85
2019-03-27T00:15:33.962Z,6.84
2019-03-27T00:16:33.984Z,6.84
2019-03-27T00:17:33.929Z,6.92
2019-03-27T00:18:33.923Z,6.84
2019-03-27T00:19:33.879Z,6.87
2019-03-27T00:20:33.888Z,6.82
2019-03-27T00:21:33.859Z,6.82
2019-03-27T00:22:33.856Z,6.84
2019-03-27T00:23:33.865Z,6.87
2019-03-27T00:24:33.918Z,6.84
2019-03-27T00:25:33.815Z,6.87
2019-03-27T00:26:33.806Z,6.88
2019-03-27T00:27:33.809Z,6.93
2019-03-27T00:28:33.794Z,6.92
2019-03-27T00:29:33.824Z,6.84
2019-03-27T00:30:33.762Z,6.89
2019-03-27T00:31:33.751Z,6.88
2019-03-27T00:32:33.815Z,6.89
2019-03-27T00:33:33.742Z,6.92
2019-03-27T00:34:33.782Z,6.97
2019-03-27T00:35:33.746Z,6.96
2019-03-27T00:36:33.695Z,7.02
2019-03-27T00:37:33.686Z,6.99
2019-03-27T00:38:33.684Z,6.97
2019-03-27T00:39:33.699Z,7.06
2019-03-27T00:40:33.650Z,7.02
2019-03-27T00:41:33.648Z,6.97
2019-03-27T00:42:33.632Z,6.96
2019-03-27T00:43:33.632Z,6.97
2019-03-27T00:44:33.609Z,6.97
2019-03-27T00:45:33.607Z,6.96
2019-03-27T00:46:33.606Z,6.97
2019-03-27T00:47:33.629Z,7.07
2019-03-27T00:48:33.564Z,7.05
2019-03-27T00:49:33.561Z,7.07
2019-03-27T00:50:33.539Z,7.02
2019-03-27T00:51:33.538Z,7.05
2019-03-27T00:52:33.550Z,7.17
2019-03-27T00:53:33.529Z,7.20
2019-03-27T00:54:33.532Z,7.20
2019-03-27T00:55:33.492Z,7.11
2019-03-27T00:56:33.480Z,7.13
2019-03-27T00:57:33.469Z,7.15
2019-03-27T00:58:33.479Z,7.14
2019-03-27T00:59:33.448Z,7.11
2019-03-27T01:00:33.435Z,7.11
2019-03-27T01:01:33.527Z,7.11
2019-03-27T01:02:33.411Z,7.02
2019-03-27T01:03:33.395Z,7.14
2019-03-27T01:04:33.432Z,7.15
2019-03-27T01:05:33.379Z,7.18
2019-03-27T01:06:33.365Z,7.17
2019-03-27T01:07:33.365Z,7.11
2019-03-27T01:08:33.345Z,7.15
2019-03-27T01:09:33.379Z,7.05
2019-03-27T01:10:33.371Z,7.05
2019-03-27T01:11:33.317Z,7.14
2019-03-27T01:12:33.301Z,7.11
2019-03-27T01:13:33.292Z,7.06
2019-03-27T01:14:33.280Z,7.11
2019-03-27T01:15:39.840Z,7.06
2019-03-27T01:16:34.311Z,7.07
2019-03-27T01:17:33.273Z,6.99
2019-03-27T01:18:33.247Z,7.00
2019-03-27T01:19:33.221Z,6.99
2019-03-27T01:20:33.217Z,7.03
2019-03-27T01:21:33.271Z,7.05
2019-03-27T01:22:33.190Z,6.99
2019-03-27T01:23:33.174Z,6.87
2019-03-27T01:24:33.202Z,6.88
2019-03-27T01:25:33.180Z,6.87
2019-03-27T01:26:33.168Z,6.81
2019-03-27T01:27:35.688Z,6.84
2019-03-27T01:28:33.126Z,6.77
2019-03-27T01:29:33.185Z,6.82
2019-03-27T01:30:33.104Z,6.82
2019-03-27T01:31:33.095Z,6.69
2019-03-27T01:32:33.108Z,6.75
2019-03-27T01:33:33.067Z,6.72
2019-03-27T01:34:33.084Z,6.69
2019-03-27T01:35:33.048Z,6.69
2019-03-27T01:36:33.075Z,6.75
2019-03-27T01:37:33.037Z,6.75
2019-03-27T01:38:33.133Z,6.66
2019-03-27T01:39:33.011Z,6.72
2019-03-27T01:40:32.992Z,6.69
2019-03-27T01:41:33.002Z,6.70
2019-03-27T01:42:40.552Z,6.66
2019-03-27T01:43:32.951Z,6.72
2019-03-27T01:44:32.952Z,6.59
2019-03-27T01:45:32.925Z,6.52
2019-03-27T01:46:32.916Z,6.52
2019-03-27T01:47:32.910Z,6.60
2019-03-27T01:48:32.893Z,6.59
2019-03-27T01:49:32.921Z,6.48
2019-03-27T01:50:32.873Z,6.59
2019-03-27T01:51:32.866Z,6.54
2019-03-27T01:52:32.852Z,6.59
2019-03-27T01:53:32.840Z,6.52
2019-03-27T01:54:32.827Z,6.57
2019-03-27T01:55:32.827Z,6.56
2019-03-27T01:56:32.823Z,6.56
2019-03-27T01:57:32.804Z,6.54
2019-03-27T01:58:32.787Z,6.56
2019-03-27T01:59:32.776Z,6.57
2019-03-27T02:00:32.765Z,6.52
2019-03-27T02:01:32.747Z,6.57
2019-03-27T02:02:32.754Z,6.41
2019-03-27T02:03:32.738Z,6.42
2019-03-27T02:04:32.715Z,6.44
2019-03-27T02:05:32.706Z,6.39
2019-03-27T02:06:32.748Z,6.33
2019-03-27T02:07:32.699Z,6.42
2019-03-27T02:08:32.702Z,6.33
2019-03-27T02:09:32.671Z,6.35
2019-03-27T02:10:32.673Z,6.28
2019-03-27T02:11:32.653Z,6.30
2019-03-27T02:12:32.625Z,6.33
2019-03-27T02:13:32.627Z,6.30
2019-03-27T02:14:32.653Z,6.22
2019-03-27T02:15:32.609Z,6.20
2019-03-27T02:16:32.582Z,6.20
2019-03-27T02:17:32.590Z,6.16
2019-03-27T02:18:32.559Z,6.19
2019-03-27T02:19:32.556Z,6.16
2019-03-27T02:20:32.559Z,6.17
2019-03-27T02:21:32.601Z,6.12
2019-03-27T02:22:32.542Z,6.19
2019-03-27T02:23:32.502Z,6.12
2019-03-27T02:24:32.494Z,6.09
2019-03-27T02:25:32.481Z,6.08
2019-03-27T02:26:32.490Z,6.09
2019-03-27T02:27:32.462Z,6.08
2019-03-27T02:28:32.485Z,6.09
2019-03-27T02:29:32.437Z,6.09
2019-03-27T02:30:32.430Z,6.12
2019-03-27T02:31:32.419Z,6.14
2019-03-27T02:32:32.419Z,6.14
2019-03-27T02:33:32.396Z,6.17
2019-03-27T02:34:32.392Z,6.12
2019-03-27T02:35:32.407Z,6.14
2019-03-27T02:36:32.375Z,6.16
2019-03-27T02:37:32.372Z,6.16
2019-03-27T02:38:32.351Z,6.12
2019-03-27T02:39:32.331Z,6.12
2019-03-27T02:40:32.320Z,6.14
2019-03-27T02:41:32.326Z,6.19
2019-03-27T02:42:32.304Z,6.24
2019-03-27T02:43:32.302Z,6.11
2019-03-27T02:44:32.276Z,6.19
2019-03-27T02:45:32.263Z,6.16
2019-03-27T02:46:32.252Z,6.22
2019-03-27T02:47:32.239Z,6.28
2019-03-27T02:48:32.259Z,6.30
2019-03-27T02:49:32.222Z,6.27
2019-03-27T02:50:32.219Z,6.28
2019-03-27T02:51:32.201Z,6.28
2019-03-27T02:52:32.183Z,6.22
2019-03-27T02:53:32.171Z,6.28
2019-03-27T02:54:32.176Z,6.38
2019-03-27T02:55:32.155Z,6.30
2019-03-27T02:56:32.172Z,6.35
2019-03-27T02:57:32.164Z,6.28
2019-03-27T02:58:32.120Z,6.27
2019-03-27T02:59:32.131Z,6.31
2019-03-27T03:00:32.098Z,6.19
2019-03-27T03:01:32.088Z,6.35
2019-03-27T03:02:32.071Z,6.35
2019-03-27T03:03:32.071Z,6.31
2019-03-27T03:04:32.061Z,6.41
2019-03-27T03:05:32.069Z,6.33
2019-03-27T03:06:32.031Z,6.31
2019-03-27T03:07:32.026Z,6.33
2019-03-27T03:08:32.030Z,6.35
2019-03-27T03:09:32.003Z,6.36
2019-03-27T03:10:31.985Z,6.33
2019-03-27T03:11:31.976Z,6.33
2019-03-27T03:12:31.964Z,6.33
2019-03-27T03:13:31.954Z,6.38
2019-03-27T03:14:32.000Z,6.39
2019-03-27T03:15:31.961Z,6.33
2019-03-27T03:16:42.130Z,6.30
2019-03-27T03:17:32.909Z,6.33
2019-03-27T03:18:31.896Z,6.33
2019-03-27T03:19:31.887Z,6.31
2019-03-27T03:20:31.906Z,6.24
2019-03-27T03:21:31.883Z,6.19
2019-03-27T03:22:31.851Z,6.20
2019-03-27T03:23:31.865Z,6.19
2019-03-27T03:24:31.835Z,6.17
2019-03-27T03:25:31.826Z,6.19
2019-03-27T03:26:31.824Z,6.24
2019-03-27T03:27:31.829Z,6.20
2019-03-27T03:28:31.792Z,6.11
2019-03-27T03:29:31.780Z,6.16
2019-03-27T03:30:31.764Z,6.12
2019-03-27T03:31:31.770Z,6.14
2019-03-27T03:32:31.789Z,6.16
2019-03-27T03:33:31.743Z,6.11
2019-03-27T03:34:31.730Z,6.14
2019-03-27T03:35:31.708Z,6.11
2019-03-27T03:36:31.698Z,6.16
2019-03-27T03:37:31.713Z,6.14
2019-03-27T03:38:31.686Z,6.12
2019-03-27T03:39:31.664Z,6.07
2019-03-27T03:40:31.656Z,6.04
2019-03-27T03:41:31.644Z,6.08
2019-03-27T03:42:31.643Z,6.07
2019-03-27T03:43:31.649Z,6.01
2019-03-27T03:44:31.636Z,6.05
2019-03-27T03:45:31.610Z,6.04
2019-03-27T03:46:31.594Z,5.98
2019-03-27T03:47:31.585Z,6.05
2019-03-27T03:48:31.565Z,5.93
2019-03-27T03:49:31.575Z,5.93
2019-03-27T03:50:31.567Z,5.89
2019-03-27T03:51:31.533Z,5.87
2019-03-27T03:52:31.526Z,5.83
2019-03-27T03:53:31.515Z,5.83
2019-03-27T03:54:31.500Z,5.82
2019-03-27T03:55:31.492Z,5.72
2019-03-27T03:56:31.492Z,5.79
2019-03-27T03:57:31.480Z,5.80
2019-03-27T03:58:31.462Z,5.69
2019-03-27T03:59:31.444Z,5.73
2019-03-27T04:00:31.434Z,5.79
2019-03-27T04:01:31.423Z,5.75
2019-03-27T04:02:31.414Z,5.80
2019-03-27T04:03:31.414Z,5.66
2019-03-27T04:04:31.392Z,5.73
2019-03-27T04:05:31.399Z,5.73
2019-03-27T04:06:31.389Z,5.71
2019-03-27T04:07:31.356Z,5.72
2019-03-27T04:08:31.344Z,5.71
2019-03-27T04:09:31.449Z,5.65
2019-03-27T04:10:31.347Z,5.75
2019-03-27T04:11:31.327Z,5.76
2019-03-27T04:12:31.303Z,5.73
2019-03-27T04:13:31.292Z,5.71
2019-03-27T04:14:31.279Z,5.71
2019-03-27T04:15:31.278Z,5.65
2019-03-27T04:16:31.258Z,5.71
2019-03-27T04:17:31.263Z,5.64
2019-03-27T04:18:31.236Z,5.72
2019-03-27T04:19:31.263Z,5.72
2019-03-27T04:20:31.237Z,5.56
2019-03-27T04:21:31.217Z,5.61
2019-03-27T04:22:31.190Z,5.59
2019-03-27T04:23:31.181Z,5.54
2019-03-27T04:24:31.197Z,5.53
2019-03-27T04:25:53.839Z,5.59
2019-03-27T04:26:33.628Z,5.65
2019-03-27T04:27:31.136Z,5.64
2019-03-27T04:28:31.130Z,5.69
2019-03-27T04:29:31.118Z,5.71
2019-03-27T04:30:31.118Z,5.68
2019-03-27T04:31:31.108Z,5.72
2019-03-27T04:32:31.091Z,5.65
2019-03-27T04:33:31.069Z,5.64
2019-03-27T04:34:31.060Z,5.68
2019-03-27T04:35:31.078Z,5.69
2019-03-27T04:36:31.037Z,5.69
2019-03-27T04:37:31.045Z,5.71
2019-03-27T04:38:31.038Z,5.69
2019-03-27T04:39:31.004Z,5.68
2019-03-27T04:40:31.039Z,5.68
2019-03-27T04:41:30.987Z,5.62
2019-03-27T04:42:30.970Z,5.61
2019-03-27T04:43:30.977Z,5.69
2019-03-27T04:44:30.948Z,5.61
2019-03-27T04:45:30.950Z,5.66
2019-03-27T04:46:30.939Z,5.66
2019-03-27T04:47:32.491Z,5.61
2019-03-27T04:48:30.923Z,5.66
2019-03-27T04:49:30.919Z,5.68
2019-03-27T04:50:30.888Z,5.68
2019-03-27T04:51:30.885Z,5.65
2019-03-27T04:52:30.856Z,5.68
2019-03-27T04:53:30.845Z,5.65
2019-03-27T04:54:30.838Z,5.61
2019-03-27T04:55:30.849Z,5.54
2019-03-27T04:56:30.817Z,5.61
2019-03-27T04:57:30.803Z,5.61
2019-03-27T04:58:30.793Z,5.53
2019-03-27T04:59:30.782Z,5.51
2019-03-27T05:00:30.777Z,5.57
2019-03-27T05:01:30.772Z,5.57
2019-03-27T05:02:30.751Z,5.56
2019-03-27T05:03:30.746Z,5.61
2019-03-27T05:04:30.735Z,5.51
2019-03-27T05:05:30.719Z,5.51
2019-03-27T05:06:30.724Z,5.51
2019-03-27T05:07:30.706Z,5.48
2019-03-27T05:08:30.696Z,5.43
2019-03-27T05:09:30.674Z,5.44
2019-03-27T05:10:30.692Z,5.43
2019-03-27T05:11:30.650Z,5.50
2019-03-27T05:12:30.670Z,5.47
2019-03-27T05:13:30.633Z,5.57
2019-03-27T05:14:30.616Z,5.56
2019-03-27T05:15:30.601Z,5.59
2019-03-27T05:16:30.597Z,5.57
2019-03-27T05:17:30.598Z,5.66
2019-03-27T05:18:30.571Z,5.66
2019-03-27T05:19:30.561Z,5.62
2019-03-27T05:20:30.550Z,5.62
2019-03-27T05:21:30.539Z,5.65
2019-03-27T05:22:30.531Z,5.72
2019-03-27T05:23:30.539Z,5.68
2019-03-27T05:24:30.504Z,5.66
2019-03-27T05:25:30.489Z,5.57
2019-03-27T05:26:30.482Z,5.59
2019-03-27T05:27:30.478Z,5.54
2019-03-27T05:28:30.466Z,5.56
2019-03-27T05:29:30.468Z,5.56
2019-03-27T05:30:30.463Z,5.57
2019-03-27T05:31:30.434Z,5.46
2019-03-27T05:32:30.438Z,5.43
2019-03-27T05:33:32.724Z,5.41
2019-03-27T05:34:30.409Z,5.43
2019-03-27T05:35:30.410Z,5.50
2019-03-27T05:36:30.375Z,5.51
2019-03-27T05:37:30.363Z,5.46
2019-03-27T05:38:30.349Z,5.46
2019-03-27T05:39:30.337Z,5.50
2019-03-27T05:40:30.344Z,5.57
2019-03-27T05:41:30.316Z,5.57
2019-03-27T05:42:30.360Z,5.54
2019-03-27T05:43:30.300Z,5.57
2019-03-27T05:44:30.282Z,5.61
2019-03-27T05:45:30.275Z,5.59
2019-03-27T05:46:30.287Z,5.65
2019-03-27T05:47:30.251Z,5.56
2019-03-27T05:48:30.242Z,5.62
2019-03-27T05:49:30.228Z,5.54
2019-03-27T05:50:30.232Z,5.59
2019-03-27T05:51:30.207Z,5.71
2019-03-27T05:52:30.208Z,5.66
2019-03-27T05:53:30.204Z,5.69
2019-03-27T05:54:30.174Z,5.66
2019-03-27T05:55:30.166Z,5.66
2019-03-27T05:56:30.155Z,5.62
2019-03-27T05:57:30.162Z,5.64
2019-03-27T05:58:30.128Z,5.64
2019-03-27T05:59:30.119Z,5.65
2019-03-27T06:00:33.258Z,5.68
2019-03-27T06:01:30.094Z,5.75
2019-03-27T06:02:30.130Z,5.68
2019-03-27T06:03:30.090Z,5.68
2019-03-27T06:04:30.065Z,5.57
2019-03-27T06:05:30.054Z,5.68
2019-03-27T06:06:30.044Z,5.71
2019-03-27T06:07:30.031Z,5.68
2019-03-27T06:08:30.043Z,5.75
2019-03-27T06:09:30.058Z,5.64
2019-03-27T06:10:30.021Z,5.59
2019-03-27T06:11:30.004Z,5.68
2019-03-27T06:12:29.975Z,5.61
2019-03-27T06:13:29.963Z,5.65
2019-03-27T06:14:29.964Z,5.71
2019-03-27T06:15:29.970Z,5.65
2019-03-27T06:16:29.947Z,5.71
2019-03-27T06:17:29.919Z,5.72
2019-03-27T06:18:29.910Z,5.66
2019-03-27T06:19:29.915Z,5.57
2019-03-27T06:20:29.895Z,5.59
2019-03-27T06:21:29.900Z,5.61
2019-03-27T06:22:29.879Z,5.62
2019-03-27T06:23:29.872Z,5.73
2019-03-27T06:24:29.865Z,5.64
2019-03-27T06:25:29.843Z,5.64
2019-03-27T06:26:29.817Z,5.54
2019-03-27T06:27:29.869Z,5.56
2019-03-27T06:28:29.796Z,5.59
2019-03-27T06:29:29.786Z,5.68
2019-03-27T06:30:29.773Z,5.66
2019-03-27T06:31:29.763Z,5.76
2019-03-27T06:32:29.751Z,5.65
2019-03-27T06:33:29.784Z,5.71
2019-03-27T06:34:29.738Z,5.72
2019-03-27T06:35:29.722Z,5.73
2019-03-27T06:36:29.708Z,5.68
2019-03-27T06:37:29.715Z,5.71
2019-03-27T06:38:29.688Z,5.83
2019-03-27T06:39:29.691Z,5.83
2019-03-27T06:40:29.682Z,5.82
2019-03-27T06:41:29.654Z,5.68
2019-03-27T06:42:29.646Z,5.68
2019-03-27T06:43:29.638Z,5.65
2019-03-27T06:44:29.620Z,5.61
2019-03-27T06:45:29.625Z,5.73
2019-03-27T06:46:29.615Z,5.75
2019-03-27T06:47:29.617Z,5.80
2019-03-27T06:48:29.591Z,5.62
2019-03-27T06:49:29.565Z,5.72
2019-03-27T06:50:29.560Z,5.71
2019-03-27T06:51:39.546Z,5.69
2019-03-27T06:52:30.535Z,5.72
2019-03-27T06:53:29.536Z,5.71
2019-03-27T06:54:29.514Z,5.68
2019-03-27T06:55:29.502Z,5.71
2019-03-27T06:56:29.505Z,5.65
2019-03-27T06:57:29.482Z,5.69
2019-03-27T06:58:29.475Z,5.71
2019-03-27T06:59:29.477Z,5.75
2019-03-27T07:00:29.445Z,5.75
2019-03-27T07:01:29.433Z,5.79
2019-03-27T07:02:29.442Z,5.79
2019-03-27T07:03:29.439Z,5.79
2019-03-27T07:04:29.399Z,5.79
2019-03-27T07:05:29.424Z,5.83
2019-03-27T07:06:29.379Z,5.84
2019-03-27T07:07:29.370Z,5.80
2019-03-27T07:08:29.365Z,5.87
2019-03-27T07:09:29.347Z,5.87
2019-03-27T07:10:29.333Z,5.86
2019-03-27T07:11:29.371Z,5.87
2019-03-27T07:12:29.310Z,5.87
2019-03-27T07:13:29.318Z,5.94
2019-03-27T07:14:29.293Z,6.04
2019-03-27T07:15:29.281Z,6.04
2019-03-27T07:16:29.267Z,6.04
2019-03-27T07:17:29.267Z,6.05
2019-03-27T07:18:39.416Z,6.09
2019-03-27T07:19:30.290Z,6.17
2019-03-27T07:20:29.225Z,6.24
2019-03-27T07:21:29.221Z,6.20
2019-03-27T07:22:29.203Z,6.28
2019-03-27T07:23:29.189Z,6.26
2019-03-27T07:24:29.223Z,6.30
2019-03-27T07:25:29.182Z,6.19
2019-03-27T07:26:29.160Z,6.22
2019-03-27T07:27:29.149Z,6.27
2019-03-27T07:28:29.155Z,6.28
2019-03-27T07:29:29.127Z,6.22
2019-03-27T07:30:29.132Z,6.30
2019-03-27T07:31:29.102Z,6.45
2019-03-27T07:32:29.092Z,6.44
2019-03-27T07:33:29.082Z,6.39
2019-03-27T07:34:29.105Z,6.39
2019-03-27T07:35:29.063Z,6.49
2019-03-27T07:36:29.094Z,6.49
2019-03-27T07:37:29.036Z,6.41
2019-03-27T07:38:29.023Z,6.44
2019-03-27T07:39:29.013Z,6.42
2019-03-27T07:40:29.036Z,6.39
2019-03-27T07:41:28.996Z,6.46
2019-03-27T07:42:29.131Z,6.52
2019-03-27T07:43:36.535Z,6.48
2019-03-27T07:44:28.957Z,6.56
2019-03-27T07:45:28.945Z,6.69
2019-03-27T07:46:28.962Z,6.74
2019-03-27T07:47:28.949Z,6.74
2019-03-27T07:48:28.916Z,6.74
2019-03-27T07:49:28.913Z,6.69
2019-03-27T07:50:28.899Z,6.79
2019-03-27T07:51:28.890Z,6.66
2019-03-27T07:52:28.880Z,6.62
2019-03-27T07:53:28.865Z,6.63
2019-03-27T07:54:28.847Z,6.67
2019-03-27T07:55:28.835Z,6.60
2019-03-27T07:56:28.827Z,6.72
2019-03-27T07:57:28.833Z,6.81
2019-03-27T07:58:28.805Z,6.88
2019-03-27T07:59:28.807Z,6.95
2019-03-27T08:00:28.788Z,7.05
2019-03-27T08:01:28.769Z,7.10
2019-03-27T08:02:28.764Z,7.14
2019-03-27T08:03:28.761Z,7.29
2019-03-27T08:04:28.754Z,7.32
2019-03-27T08:05:28.729Z,7.29
2019-03-27T08:06:28.718Z,7.31
2019-03-27T08:07:28.702Z,7.36
2019-03-27T08:08:28.691Z,7.25
2019-03-27T08:09:28.690Z,7.20
2019-03-27T08:10:28.679Z,7.36
2019-03-27T08:11:28.785Z,7.47
2019-03-27T08:12:28.663Z,7.48
2019-03-27T08:13:28.634Z,7.51
2019-03-27T08:14:28.653Z,7.45
2019-03-27T08:15:28.612Z,7.36
2019-03-27T08:16:28.602Z,7.38
2019-03-27T08:17:28.591Z,7.61
2019-03-27T08:18:28.590Z,7.61
2019-03-27T08:19:28.569Z,7.48
2019-03-27T08:20:28.570Z,7.47
2019-03-27T08:21:31.242Z,7.40
2019-03-27T08:22:28.535Z,7.45
2019-03-27T08:23:28.540Z,7.45
2019-03-27T08:24:28.541Z,7.45
2019-03-27T08:25:28.513Z,7.38
2019-03-27T08:26:28.490Z,7.32
2019-03-27T08:27:28.480Z,7.31
2019-03-27T08:28:28.470Z,7.40
2019-03-27T08:29:28.485Z,7.28
2019-03-27T08:30:28.457Z,7.38
2019-03-27T08:31:28.435Z,7.33
2019-03-27T08:32:28.434Z,7.47
2019-03-27T08:33:28.421Z,7.45
2019-03-27T08:34:28.403Z,7.53
2019-03-27T08:35:28.410Z,7.53
2019-03-27T08:36:28.411Z,7.63
2019-03-27T08:37:28.379Z,7.85
2019-03-27T08:38:28.364Z,8.13
2019-03-27T08:39:28.349Z,8.31
2019-03-27T08:40:28.342Z,8.31
2019-03-27T08:41:28.325Z,8.34
2019-03-27T08:42:28.328Z,8.49
2019-03-27T08:43:28.327Z,8.81
2019-03-27T08:44:28.293Z,8.78
2019-03-27T08:45:28.281Z,8.71
2019-03-27T08:46:28.271Z,8.71
2019-03-27T08:47:28.271Z,8.67
2019-03-27T08:48:28.249Z,8.58
2019-03-27T08:49:28.257Z,8.61
2019-03-27T08:50:28.230Z,8.84
2019-03-27T08:51:28.221Z,8.82
2019-03-27T08:52:28.225Z,8.82
2019-03-27T08:53:28.204Z,8.92
2019-03-27T08:54:28.182Z,9.03
2019-03-27T08:55:28.174Z,9.03
2019-03-27T08:56:28.162Z,9.00
2019-03-27T08:57:28.150Z,9.04
2019-03-27T08:58:28.162Z,9.19
2019-03-27T08:59:28.132Z,9.48
2019-03-27T09:00:28.127Z,9.51
2019-03-27T09:01:28.105Z,9.74
2019-03-27T09:02:28.095Z,9.62
2019-03-27T09:03:28.084Z,9.31
2019-03-27T09:04:28.103Z,9.28
2019-03-27T09:05:28.064Z,9.41
2019-03-27T09:06:33.545Z,9.47
2019-03-27T09:07:29.037Z,9.68
2019-03-27T09:08:28.028Z,9.80
2019-03-27T09:09:28.020Z,9.86
2019-03-27T09:10:28.032Z,9.77
2019-03-27T09:11:28.001Z,9.94
2019-03-27T09:12:28.043Z,10.10
2019-03-27T09:13:27.973Z,10.25
2019-03-27T09:14:27.962Z,10.33
2019-03-27T09:15:27.967Z,10.46
2019-03-27T09:16:27.942Z,10.64
2019-03-27T09:17:27.930Z,10.76
2019-03-27T09:18:27.927Z,10.81
2019-03-27T09:19:35.736Z,11.05
2019-03-27T09:20:28.925Z,11.18
2019-03-27T09:21:27.888Z,11.40
2019-03-27T09:22:27.879Z,11.27
2019-03-27T09:23:27.865Z,11.43
2019-03-27T09:24:27.856Z,11.10
2019-03-27T09:25:27.842Z,11.17
2019-03-27T09:26:27.845Z,11.18
2019-03-27T09:27:27.829Z,11.22
2019-03-27T09:28:27.822Z,11.19
2019-03-27T09:29:27.818Z,11.12
2019-03-27T09:30:27.798Z,11.07
2019-03-27T09:31:27.794Z,10.97
2019-03-27T09:32:27.824Z,10.99
2019-03-27T09:33:27.754Z,10.97
2019-03-27T09:34:27.745Z,10.87
2019-03-27T09:35:27.744Z,10.89
2019-03-27T09:36:27.746Z,10.76
2019-03-27T09:37:27.726Z,10.79
2019-03-27T09:38:27.700Z,10.74
2019-03-27T09:39:27.704Z,10.78
2019-03-27T09:40:27.678Z,10.81
2019-03-27T09:41:27.668Z,10.87
2019-03-27T09:42:27.683Z,10.82
2019-03-27T09:43:27.647Z,10.72
2019-03-27T09:44:27.635Z,10.63
2019-03-27T09:45:27.632Z,10.63
2019-03-27T09:46:27.609Z,10.60
2019-03-27T09:47:27.673Z,10.72
2019-03-27T09:48:27.613Z,10.84
2019-03-27T09:49:27.582Z,11.05
2019-03-27T09:50:27.588Z,11.12
2019-03-27T09:51:27.573Z,11.27
2019-03-27T09:52:27.549Z,11.59
2019-03-27T09:53:27.548Z,11.78
2019-03-27T09:54:27.548Z,12.02
2019-03-27T09:55:27.528Z,12.22
2019-03-27T09:56:27.544Z,12.35
2019-03-27T09:57:27.519Z,12.43
2019-03-27T09:58:27.480Z,12.60
2019-03-27T09:59:27.493Z,12.79
2019-03-27T10:00:27.460Z,12.94
2019-03-27T10:01:27.463Z,12.95
2019-03-27T10:02:27.443Z,13.01
2019-03-27T10:03:27.429Z,13.01
2019-03-27T10:04:27.418Z,12.94
2019-03-27T10:05:27.398Z,13.08
2019-03-27T10:06:27.401Z,13.15
2019-03-27T10:07:27.403Z,13.28
2019-03-27T10:08:27.380Z,13.31
2019-03-27T10:09:27.359Z,13.31
2019-03-27T10:10:27.351Z,13.18
2019-03-27T10:11:27.356Z,12.94
2019-03-27T10:12:27.322Z,12.60
2019-03-27T10:13:27.336Z,12.29
2019-03-27T10:14:27.303Z,12.39
2019-03-27T10:15:27.302Z,12.35
2019-03-27T10:16:27.286Z,12.45
2019-03-27T10:17:27.269Z,12.78
2019-03-27T10:18:27.259Z,12.78
2019-03-27T10:19:27.272Z,12.73
2019-03-27T10:20:27.235Z,12.93
2019-03-27T10:21:27.231Z,13.04
2019-03-27T10:22:27.217Z,13.03
2019-03-27T10:23:27.202Z,13.30
2019-03-27T10:24:27.198Z,13.35
2019-03-27T10:25:27.201Z,13.33
2019-03-27T10:26:27.175Z,13.33
2019-03-27T10:27:27.161Z,13.16
2019-03-27T10:28:27.145Z,13.00
2019-03-27T10:29:27.136Z,12.76
2019-03-27T10:30:27.124Z,12.79
2019-03-27T10:31:27.133Z,12.85
2019-03-27T10:32:27.123Z,12.94
2019-03-27T10:33:27.092Z,12.68
2019-03-27T10:34:27.081Z,12.58
2019-03-27T10:35:27.068Z,12.57
2019-03-27T10:36:27.059Z,12.64
2019-03-27T10:37:27.074Z,12.78
2019-03-27T10:38:27.041Z,12.67
2019-03-27T10:39:27.026Z,12.98
2019-03-27T10:40:27.025Z,13.30
2019-03-27T10:41:27.008Z,13.35
2019-03-27T10:42:27.011Z,13.53
2019-03-27T10:43:27.001Z,13.52
2019-03-27T10:44:26.990Z,13.44
2019-03-27T10:45:26.963Z,13.44
2019-03-27T10:46:26.959Z,13.42
2019-03-27T10:47:26.940Z,13.62
2019-03-27T10:48:26.927Z,13.77
2019-03-27T10:49:26.932Z,13.72
2019-03-27T10:50:26.901Z,13.56
2019-03-27T10:51:26.891Z,13.37
2019-03-27T10:52:26.884Z,13.25
2019-03-27T10:53:26.867Z,13.42
2019-03-27T10:54:26.874Z,13.44
2019-03-27T10:55:26.845Z,13.56
2019-03-27T10:56:26.837Z,13.75
2019-03-27T10:57:26.830Z,13.81
2019-03-27T10:58:26.825Z,13.79
2019-03-27T10:59:26.801Z,13.81
2019-03-27T11:00:26.818Z,13.65
2019-03-27T11:01:26.778Z,13.38
2019-03-27T11:02:26.773Z,13.37
2019-03-27T11:03:26.760Z,13.41
2019-03-27T11:04:26.756Z,13.53
2019-03-27T11:05:26.735Z,13.83
2019-03-27T11:06:26.737Z,14.07
2019-03-27T11:07:26.731Z,13.93
2019-03-27T11:08:26.703Z,13.86
2019-03-27T11:09:26.692Z,13.60
2019-03-27T11:10:26.695Z,13.41
2019-03-27T11:11:26.670Z,13.23
2019-03-27T11:12:26.672Z,12.90
2019-03-27T11:13:26.659Z,12.83
2019-03-27T11:14:37.372Z,12.83
2019-03-27T11:15:27.623Z,12.76
2019-03-27T11:16:26.616Z,12.93
2019-03-27T11:17:26.622Z,13.30
2019-03-27T11:18:26.591Z,13.41
2019-03-27T11:19:26.580Z,13.52
2019-03-27T11:20:31.248Z,13.68
2019-03-27T11:21:27.557Z,13.79
2019-03-27T11:22:26.582Z,13.78
2019-03-27T11:23:26.540Z,13.70
2019-03-27T11:24:26.559Z,13.72
2019-03-27T11:25:26.513Z,13.70
2019-03-27T11:26:26.565Z,13.22
2019-03-27T11:27:26.496Z,12.94
2019-03-27T11:28:26.520Z,12.76
2019-03-27T11:29:26.469Z,12.85
2019-03-27T11:30:26.507Z,12.79
2019-03-27T11:31:26.457Z,12.87
2019-03-27T11:32:26.435Z,13.00
2019-03-27T11:33:28.915Z,13.13
2019-03-27T11:34:26.431Z,13.23
2019-03-27T11:35:26.405Z,13.28
2019-03-27T11:36:26.395Z,13.22
2019-03-27T11:37:26.387Z,13.20
2019-03-27T11:38:26.383Z,13.33
2019-03-27T11:39:26.365Z,13.42
2019-03-27T11:40:26.359Z,13.68
2019-03-27T11:41:26.335Z,13.90
2019-03-27T11:42:26.349Z,14.10
2019-03-27T11:43:26.315Z,14.25
2019-03-27T11:44:26.302Z,14.12
2019-03-27T11:45:26.298Z,14.10
2019-03-27T11:46:26.288Z,13.92
2019-03-27T11:47:26.283Z,13.95
2019-03-27T11:48:26.287Z,14.07
2019-03-27T11:49:26.268Z,14.07
2019-03-27T11:50:26.236Z,14.12
2019-03-27T11:51:26.231Z,14.05
2019-03-27T11:52:29.434Z,14.07
2019-03-27T11:53:26.211Z,13.81
2019-03-27T11:54:26.226Z,13.52
2019-03-27T11:55:26.186Z,13.37
2019-03-27T11:56:26.177Z,13.33
2019-03-27T11:57:26.160Z,13.44
2019-03-27T11:58:26.158Z,13.50
2019-03-27T11:59:26.148Z,13.53
2019-03-27T12:00:26.138Z,13.54
2019-03-27T12:01:38.629Z,13.37
2019-03-27T12:02:27.108Z,13.20
2019-03-27T12:03:26.101Z,13.18
2019-03-27T12:04:26.090Z,13.09
2019-03-27T12:05:26.089Z,13.04
2019-03-27T12:06:26.059Z,12.95
2019-03-27T12:07:26.049Z,13.00
2019-03-27T12:08:26.041Z,13.00
2019-03-27T12:09:26.039Z,12.90
2019-03-27T12:10:26.018Z,12.85
2019-03-27T12:11:26.016Z,12.86
2019-03-27T12:12:25.995Z,12.87
2019-03-27T12:13:25.982Z,12.83
2019-03-27T12:14:25.983Z,12.87
2019-03-27T12:15:25.966Z,12.91
2019-03-27T12:16:25.968Z,12.97
2019-03-27T12:17:25.939Z,12.79
2019-03-27T12:18:25.929Z,12.70
2019-03-27T12:19:25.914Z,12.62
2019-03-27T12:20:25.903Z,12.61
2019-03-27T12:21:25.912Z,12.67
2019-03-27T12:22:25.892Z,12.68
2019-03-27T12:23:25.870Z,12.68
2019-03-27T12:24:25.861Z,12.80
2019-03-27T12:25:25.865Z,12.83
2019-03-27T12:26:25.842Z,12.95
2019-03-27T12:27:25.837Z,12.79
2019-03-27T12:28:25.896Z,12.68
2019-03-27T12:29:25.804Z,12.58
2019-03-27T12:30:25.792Z,12.57
2019-03-27T12:31:25.781Z,12.37
2019-03-27T12:32:25.790Z,12.62
2019-03-27T12:33:25.763Z,12.61
2019-03-27T12:34:25.780Z,12.62
2019-03-27T12:35:25.738Z,12.68
2019-03-27T12:36:25.733Z,12.75
2019-03-27T12:37:25.714Z,12.91
2019-03-27T12:38:25.725Z,12.97
2019-03-27T12:39:25.717Z,13.08
2019-03-27T12:40:25.686Z,13.08
2019-03-27T12:41:25.673Z,13.15
2019-03-27T12:42:25.661Z,13.15
2019-03-27T12:43:25.653Z,13.05
2019-03-27T12:44:25.659Z,13.11
2019-03-27T12:45:25.627Z,13.18
2019-03-27T12:46:25.621Z,13.15
2019-03-27T12:47:25.602Z,13.20
2019-03-27T12:48:25.592Z,13.20
2019-03-27T12:49:25.600Z,13.38
2019-03-27T12:50:25.571Z,13.50
2019-03-27T12:51:25.570Z,13.67
2019-03-27T12:52:25.549Z,13.78
2019-03-27T12:53:25.540Z,13.85
2019-03-27T12:54:25.529Z,13.70
2019-03-27T12:55:25.538Z,13.81
2019-03-27T12:56:25.511Z,13.87
2019-03-27T12:57:25.529Z,13.74
2019-03-27T12:58:25.487Z,13.49
2019-03-27T12:59:25.474Z,13.31
2019-03-27T13:00:25.463Z,13.25
2019-03-27T13:01:25.453Z,13.15
2019-03-27T13:02:25.441Z,13.16
2019-03-27T13:03:25.440Z,13.25
2019-03-27T13:04:25.442Z,13.31
2019-03-27T13:05:25.413Z,13.15
2019-03-27T13:06:25.408Z,13.15
2019-03-27T13:07:25.384Z,13.31
2019-03-27T13:08:25.373Z,13.20
2019-03-27T13:09:25.362Z,13.35
2019-03-27T13:10:25.352Z,13.25